Time;durP1;ratioP1;P1;durP2;ratioP2;P2;SDS_P1;SDS_P2;PMS_P1;PMS_P2;Temp;Humidity;BMP_temperature;BMP_pressure;BME280_temperature;BME280_humidity;BME280_pressure;Samples;Min_cycle;Max_cycle;Signal;HPM_P1;HPM_P2
2022/10/28 00:02:19;;;;;;;8.90;5.43;;;;;;;13.31;100.00;101341.81;4951080;28;20126;-72
2022/10/28 00:04:44;;;;;;;5.83;4.50;;;;;;;13.25;100.00;101337.94;4964806;28;20070;-72
2022/10/28 00:07:09;;;;;;;11.03;5.50;;;;;;;13.31;100.00;101341.81;4948600;28;20038;-72
2022/10/28 00:09:35;;;;;;;13.73;5.07;;;;;;;13.35;100.00;101347.72;4956582;28;20181;-72
2022/10/28 00:12:00;;;;;;;13.47;5.20;;;;;;;13.41;100.00;101339.81;4966141;28;20062;-72
2022/10/28 00:14:25;;;;;;;7.80;4.57;;;;;;;13.39;100.00;101335.63;4950377;28;20081;-73
2022/10/28 00:16:51;;;;;;;12.23;5.13;;;;;;;13.37;100.00;101329.56;4956460;28;20178;-72
2022/10/28 00:19:16;;;;;;;11.17;5.57;;;;;;;13.33;100.00;101331.78;4948858;28;20037;-72
2022/10/28 00:21:43;;;;;;;11.15;5.88;;;;;;;13.37;100.00;101334.94;4971080;28;20423;-72
2022/10/28 00:24:09;;;;;;;;;;;;;;;13.36;100.00;101331.44;4951676;28;20043;-73
2022/10/28 00:26:37;;;;;;;16.85;5.72;;;;;;;13.37;100.00;101327.75;4963020;28;19914;-72
2022/10/28 00:29:11;;;;;;;11.18;5.43;;;;;;;13.41;100.00;101328.25;4966025;28;20042;-72
2022/10/28 00:31:38;;;;;;;11.90;5.55;;;;;;;13.47;100.00;101341.00;4966542;28;20077;-72
2022/10/28 00:34:04;;;;;;;;;;;;;;;13.49;100.00;101339.81;4966535;28;20026;-72
2022/10/28 00:36:33;;;;;;;10.98;5.30;;;;;;;13.50;100.00;101341.50;4965731;28;19952;-73
2022/10/28 00:38:59;;;;;;;11.15;4.75;;;;;;;13.50;100.00;101335.28;4959293;28;20034;-72
2022/10/28 00:41:26;;;;;;;9.57;5.25;;;;;;;13.52;100.00;101334.13;4965193;28;20549;-73
2022/10/28 00:43:55;;;;;;;13.43;5.45;;;;;;;13.55;100.00;101351.72;4968023;28;20030;-72
2022/10/28 00:46:26;;;;;;;10.85;4.80;;;;;;;13.57;100.00;101348.88;4970564;28;20391;-72
2022/10/28 00:49:00;;;;;;;14.00;4.72;;;;;;;13.59;100.00;101346.88;4946966;28;20078;-72
2022/10/28 00:51:28;;;;;;;6.78;4.50;;;;;;;13.55;100.00;101337.47;4942378;28;20026;-72
2022/10/28 00:53:55;;;;;;;10.43;5.70;;;;;;;13.56;100.00;101339.16;4972648;28;20033;-73
2022/10/28 00:56:21;;;;;;;;;;;;;;;13.51;100.00;101343.19;4949420;28;20089;-72
2022/10/28 00:58:49;;;;;;;13.35;5.18;;;;;;;13.44;100.00;101336.81;4962078;28;19914;-72
2022/10/28 01:01:14;;;;;;;9.55;4.72;;;;;;;13.46;100.00;101345.53;4949812;28;20031;-72
2022/10/28 01:03:39;;;;;;;12.00;5.57;;;;;;;13.43;100.00;101343.16;4948799;28;20054;-72
2022/10/28 01:06:05;;;;;;;11.30;5.87;;;;;;;13.46;100.00;101350.03;4950499;28;20034;-72
2022/10/28 01:08:31;;;;;;;11.15;4.95;;;;;;;13.43;100.00;101343.16;4946421;28;20019;-72
2022/10/28 01:11:16;;;;;;;9.85;5.40;;;;;;;13.42;100.00;101343.34;4964710;28;20829;-72
2022/10/28 01:14:07;;;;;;;10.00;4.90;;;;;;;13.42;100.00;101344.19;4964566;28;20047;-72
2022/10/28 01:16:45;;;;;;;16.10;5.22;;;;;;;13.40;100.00;101334.63;4947699;28;20408;-72
2022/10/28 01:19:29;;;;;;;16.77;6.03;;;;;;;13.36;100.00;101334.09;4964599;28;20296;-72
2022/10/28 01:22:09;;;;;;;13.75;5.47;;;;;;;13.29;100.00;101331.25;4968877;28;20035;-72
2022/10/28 01:24:59;;;;;;;11.45;5.53;;;;;;;13.23;100.00;101326.53;4957016;28;20444;-72
2022/10/28 01:27:41;;;;;;;13.27;5.55;;;;;;;13.24;100.00;101327.38;4949083;28;20031;-72
2022/10/28 01:30:09;;;;;;;14.43;5.47;;;;;;;13.13;100.00;101317.78;4965168;28;20575;-73
2022/10/28 01:32:54;;;;;;;8.15;5.03;;;;;;;13.15;100.00;101323.00;4954960;28;20027;-73
2022/10/28 01:35:38;;;;;;;10.13;5.22;;;;;;;13.06;100.00;101323.00;4946738;28;20089;-73
2022/10/28 01:38:32;;;;;;;9.93;5.88;;;;;;;13.09;100.00;101317.28;4948976;28;20046;-72
2022/10/28 01:41:13;;;;;;;12.20;6.10;;;;;;;13.04;100.00;101319.63;4966251;28;20031;-73
2022/10/28 01:43:57;;;;;;;14.23;5.85;;;;;;;13.09;100.00;101333.38;4964365;28;20117;-72
2022/10/28 01:46:47;;;;;;;10.88;6.03;;;;;;;13.11;100.00;101335.91;4952986;28;20498;-73
2022/10/28 01:49:19;;;;;;;16.42;5.68;;;;;;;13.09;100.00;101336.06;4962551;28;20034;-72
2022/10/28 01:51:53;;;;;;;17.83;5.95;;;;;;;13.08;100.00;101342.41;4968161;28;20043;-72
2022/10/28 01:54:23;;;;;;;9.13;6.05;;;;;;;13.10;100.00;101337.72;4964046;28;20027;-72
2022/10/28 01:56:51;;;;;;;9.77;5.55;;;;;;;13.09;100.00;101330.69;4956188;28;20122;-72
2022/10/28 01:59:21;;;;;;;10.05;5.80;;;;;;;13.10;100.00;101336.91;4975025;28;20470;-72
2022/10/28 02:01:46;;;;;;;12.40;6.38;;;;;;;13.06;100.00;101343.56;4963075;28;20039;-73
2022/10/28 02:04:12;;;;;;;17.80;6.47;;;;;;;13.01;100.00;101336.03;4964303;28;20041;-73
2022/10/28 02:06:39;;;;;;;10.23;6.73;;;;;;;13.00;100.00;101339.72;4954029;28;20066;-72
2022/10/28 02:09:08;;;;;;;15.90;7.05;;;;;;;13.07;100.00;101340.75;4952976;28;20027;-72
2022/10/28 02:11:43;;;;;;;15.88;6.60;;;;;;;13.10;100.00;101339.56;4949907;28;20423;-72
2022/10/28 02:14:28;;;;;;;12.07;6.53;;;;;;;13.07;100.00;101340.75;4948600;28;20054;-72
2022/10/28 02:17:12;;;;;;;16.20;5.97;;;;;;;13.05;100.00;101329.34;4966282;28;20290;-72
2022/10/28 02:19:52;;;;;;;14.75;5.70;;;;;;;13.08;100.00;101325.50;4947536;28;20038;-73
2022/10/28 02:22:29;;;;;;;12.73;5.75;;;;;;;13.06;100.00;101317.63;4950003;28;20035;-72
2022/10/28 02:24:57;;;;;;;11.23;6.82;;;;;;;13.05;100.00;101317.78;4964943;28;20082;-72
2022/10/28 02:27:35;;;;;;;10.98;6.38;;;;;;;12.98;100.00;101314.09;4964410;28;20058;-72
2022/10/28 02:30:12;;;;;;;11.40;6.22;;;;;;;12.98;100.00;101303.38;4946697;28;20030;-73
2022/10/28 02:32:44;;;;;;;15.55;6.70;;;;;;;12.99;100.00;101315.75;4968145;28;20066;-72
2022/10/28 02:35:21;;;;;;;13.45;6.82;;;;;;;13.02;100.00;101315.44;4967545;28;20034;-72
2022/10/28 02:37:49;;;;;;;15.43;6.82;;;;;;;13.04;100.00;101316.97;4964888;28;20035;-72
2022/10/28 02:40:20;;;;;;;12.98;6.30;;;;;;;12.96;100.00;101303.53;4948222;28;20023;-73
2022/10/28 02:42:51;;;;;;;12.52;6.43;;;;;;;13.00;100.00;101312.09;4946940;28;20044;-72
2022/10/28 02:45:22;;;;;;;11.35;6.20;;;;;;;13.00;100.00;101310.25;4967821;28;20130;-73
2022/10/28 02:47:55;;;;;;;13.65;6.75;;;;;;;12.96;100.00;101303.53;4947453;28;20035;-72
2022/10/28 02:50:25;;;;;;;17.73;7.88;;;;;;;12.99;100.00;101303.19;4968940;28;20045;-72
2022/10/28 02:52:57;;;;;;;12.38;7.57;;;;;;;13.05;100.00;101299.88;4964183;28;20497;-72
2022/10/28 02:55:29;;;;;;;12.60;6.97;;;;;;;13.06;100.00;101298.88;4968234;28;20070;-72
2022/10/28 02:57:56;;;;;;;10.45;6.95;;;;;;;13.18;100.00;101303.88;4966225;28;20035;-73
2022/10/28 03:00:23;;;;;;;13.75;7.65;;;;;;;13.14;100.00;101303.41;4968011;28;20030;-72
2022/10/28 03:02:48;;;;;;;15.85;7.25;;;;;;;13.15;100.00;101304.22;4964950;28;20105;-72
2022/10/28 03:05:14;;;;;;;13.37;7.23;;;;;;;13.19;100.00;101305.59;4933757;28;20464;-72
2022/10/28 03:07:40;;;;;;;16.53;6.87;;;;;;;13.19;100.00;101306.41;4949386;28;20031;-72
2022/10/28 03:10:07;;;;;;;10.43;6.65;;;;;;;13.20;100.00;101294.66;4963422;28;20286;-72
2022/10/28 03:12:32;;;;;;;16.38;7.95;;;;;;;13.19;100.00;101286.81;4962084;28;20066;-72
2022/10/28 03:14:57;;;;;;;15.37;6.87;;;;;;;13.16;100.00;101287.13;4947668;28;20073;-72
2022/10/28 03:17:23;;;;;;;18.37;7.57;;;;;;;13.27;100.00;101286.81;4963187;28;20038;-72
2022/10/28 03:19:48;;;;;;;18.67;7.53;;;;;;;13.26;100.00;101285.97;4962419;28;20039;-73
2022/10/28 03:22:13;;;;;;;18.50;9.43;;;;;;;13.21;100.00;101287.50;4969476;28;20026;-72
2022/10/28 03:24:39;;;;;;;15.80;7.63;;;;;;;13.31;100.00;101285.50;4948589;28;20527;-73
2022/10/28 03:27:04;;;;;;;17.43;7.13;;;;;;;13.29;100.00;101279.47;4955377;28;20035;-72
2022/10/28 03:29:30;;;;;;;17.60;6.90;;;;;;;13.31;100.00;101277.47;4957448;28;20073;-73
2022/10/28 03:31:55;;;;;;;17.03;7.43;;;;;;;13.23;100.00;101277.44;4968477;28;20302;-72
2022/10/28 03:34:20;;;;;;;13.67;7.70;;;;;;;13.19;100.00;101268.06;4936574;28;20108;-73
2022/10/28 03:36:46;;;;;;;13.20;7.27;;;;;;;13.18;100.00;101274.41;4969515;28;20140;-72
2022/10/28 03:39:13;;;;;;;12.80;6.85;;;;;;;13.20;100.00;101283.13;4970843;28;20112;-73
2022/10/28 03:41:38;;;;;;;16.10;7.03;;;;;;;13.13;100.00;101282.09;4948059;28;20126;-73
2022/10/28 03:44:04;;;;;;;13.43;8.33;;;;;;;13.04;100.00;101266.03;4966219;28;20520;-73
2022/10/28 03:46:29;;;;;;;17.23;7.67;;;;;;;12.98;100.00;101260.50;4968013;28;20046;-73
2022/10/28 03:48:54;;;;;;;20.40;7.70;;;;;;;12.98;100.00;101266.69;4966162;28;20289;-73
2022/10/28 03:51:20;;;;;;;17.70;7.57;;;;;;;12.97;100.00;101269.50;4955069;28;20066;-73
2022/10/28 03:53:45;;;;;;;16.10;7.53;;;;;;;12.95;100.00;101272.38;4966259;28;20035;-72
2022/10/28 03:56:11;;;;;;;23.23;7.27;;;;;;;12.94;100.00;101272.53;4965620;28;20594;-73
2022/10/28 03:58:36;;;;;;;13.40;8.13;;;;;;;12.95;100.00;101279.59;4952231;28;20598;-72
2022/10/28 04:01:02;;;;;;;18.10;8.37;;;;;;;12.99;100.00;101275.56;4970790;28;20023;-73
2022/10/28 04:03:27;;;;;;;17.80;7.70;;;;;;;12.96;100.00;101273.22;4965743;28;20047;-73
2022/10/28 04:05:53;;;;;;;15.63;8.47;;;;;;;12.99;100.00;101276.38;4952432;28;20061;-72
2022/10/28 04:08:19;;;;;;;14.63;7.97;;;;;;;13.05;100.00;101282.94;4965864;28;20085;-73
2022/10/28 04:10:45;;;;;;;19.23;9.52;;;;;;;13.06;100.00;101279.25;4967812;28;20039;-73
2022/10/28 04:13:11;;;;;;;17.23;8.65;;;;;;;13.10;100.00;101277.91;4968397;28;20034;-73
2022/10/28 04:15:37;;;;;;;19.63;7.85;;;;;;;13.13;100.00;101268.69;4948070;28;20038;-73
2022/10/28 04:18:02;;;;;;;15.00;8.43;;;;;;;13.10;100.00;101267.19;4965829;28;20034;-73
2022/10/28 04:20:28;;;;;;;20.48;7.88;;;;;;;13.05;100.00;101262.34;4966213;28;20037;-73
2022/10/28 04:22:54;;;;;;;20.80;9.27;;;;;;;12.98;100.00;101250.59;4965372;28;20045;-73
2022/10/28 04:25:20;;;;;;;15.23;8.67;;;;;;;12.94;100.00;101253.78;4969692;28;20031;-73
2022/10/28 04:27:46;;;;;;;13.57;8.10;;;;;;;12.88;100.00;101244.56;4955881;28;20126;-73
2022/10/28 04:30:13;;;;;;;14.40;7.63;;;;;;;12.83;100.00;101242.38;4965937;28;20129;-73
2022/10/28 04:32:39;;;;;;;12.68;8.20;;;;;;;12.79;100.00;101238.34;4951344;28;20038;-73
2022/10/28 04:35:04;;;;;;;18.02;8.10;;;;;;;12.76;100.00;101240.50;4947996;28;20041;-73
2022/10/28 04:37:30;;;;;;;12.73;8.73;;;;;;;12.72;100.00;101228.47;4946590;28;20038;-73
2022/10/28 04:39:55;;;;;;;15.83;8.10;;;;;;;12.73;100.00;101235.50;4965553;28;20065;-73
2022/10/28 04:42:22;;;;;;;16.37;9.10;;;;;;;12.75;100.00;101233.50;4969713;28;20554;-73
2022/10/28 04:44:47;;;;;;;11.82;8.45;;;;;;;12.70;100.00;101225.13;4948772;28;20078;-73
2022/10/28 04:47:13;;;;;;;18.97;11.33;;;;;;;12.65;100.00;101223.75;4947909;28;20081;-73
2022/10/28 04:49:38;;;;;;;16.77;10.87;;;;;;;12.61;100.00;101216.22;4964366;28;20049;-73
2022/10/28 04:52:03;;;;;;;15.83;10.63;;;;;;;12.58;100.00;101213.88;4954156;28;20046;-73
2022/10/28 04:54:29;;;;;;;16.30;9.43;;;;;;;12.54;100.00;101212.50;4951754;28;20031;-73
2022/10/28 04:56:54;;;;;;;16.60;9.90;;;;;;;12.55;100.00;101217.72;4964097;28;20038;-73
2022/10/28 04:59:19;;;;;;;13.57;9.13;;;;;;;12.53;100.00;101221.56;4933719;28;20049;-73
2022/10/28 05:01:45;;;;;;;17.80;8.63;;;;;;;12.53;100.00;101225.06;4946780;28;20035;-73
2022/10/28 05:04:10;;;;;;;14.33;8.87;;;;;;;12.61;100.00;101237.63;4964949;28;20085;-73
2022/10/28 05:06:36;;;;;;;20.43;9.13;;;;;;;12.61;100.00;101221.56;4955725;28;20062;-73
2022/10/28 05:09:02;;;;;;;17.10;9.07;;;;;;;12.60;100.00;101215.38;4968855;28;20115;-73
2022/10/28 05:11:27;;;;;;;16.43;8.73;;;;;;;12.53;100.00;101210.84;4937199;28;20035;-73
2022/10/28 05:13:52;;;;;;;16.30;8.70;;;;;;;12.49;100.00;101210.34;4967239;28;20722;-73
2022/10/28 05:16:18;;;;;;;16.70;9.05;;;;;;;12.43;100.00;101213.66;4965924;28;20030;-73
2022/10/28 05:18:43;;;;;;;21.73;9.35;;;;;;;12.41;100.00;101221.03;4947980;28;20038;-73
2022/10/28 05:21:09;;;;;;;21.63;9.67;;;;;;;12.40;100.00;101222.03;4947503;28;20388;-73
2022/10/28 05:23:34;;;;;;;17.30;8.97;;;;;;;12.36;100.00;101224.19;4963637;28;20039;-73
2022/10/28 05:25:59;;;;;;;15.43;9.00;;;;;;;12.35;100.00;101227.84;4946848;28;20023;-73
2022/10/28 05:28:25;;;;;;;18.47;9.77;;;;;;;12.40;100.00;101219.34;4964349;28;20395;-73
2022/10/28 05:30:50;;;;;;;21.13;10.03;;;;;;;12.44;100.00;101234.09;4966285;28;20101;-73
2022/10/28 05:33:16;;;;;;;18.40;9.87;;;;;;;12.49;100.00;101244.31;4966406;28;20031;-73
2022/10/28 05:35:41;;;;;;;14.17;9.73;;;;;;;12.54;100.00;101241.97;4948189;28;20047;-73
2022/10/28 05:38:06;;;;;;;13.67;9.10;;;;;;;12.53;100.00;101253.72;4967632;28;20038;-73
2022/10/28 05:40:32;;;;;;;19.47;10.13;;;;;;;12.56;100.00;101256.88;4945697;28;20543;-73
2022/10/28 05:42:59;;;;;;;18.42;9.65;;;;;;;12.56;100.00;101259.56;4938363;29;20552;-73
2022/10/28 05:45:24;;;;;;;19.15;10.93;;;;;;;12.54;100.00;101253.53;4961149;28;20138;-73
2022/10/28 05:47:49;;;;;;;19.30;9.27;;;;;;;12.55;100.00;101252.53;4948396;28;20039;-73
2022/10/28 05:50:17;;;;;;;22.80;10.03;;;;;;;12.58;100.00;101262.91;4965894;28;20072;-73
2022/10/28 05:52:47;;;;;;;14.25;9.30;;;;;;;12.57;100.00;101250.53;4947069;28;20043;-72
2022/10/28 05:55:13;;;;;;;14.85;8.77;;;;;;;12.61;100.00;101248.34;4968208;28;20120;-72
2022/10/28 05:57:38;;;;;;;19.95;9.43;;;;;;;12.62;100.00;101252.72;4934231;28;20039;-73
2022/10/28 06:00:05;;;;;;;13.87;8.33;;;;;;;12.56;100.00;101245.34;4965355;23;20126;-77
2022/10/28 06:02:37;;;;;;;15.70;8.45;;;;;;;12.43;100.00;101235.06;4954719;28;20263;-77
2022/10/28 06:05:03;;;;;;;13.43;9.60;;;;;;;12.33;100.00;101227.19;4956094;28;20480;-76
2022/10/28 06:07:29;;;;;;;15.20;8.70;;;;;;;12.22;100.00;101227.47;4949217;28;20027;-77
2022/10/28 06:09:54;;;;;;;20.17;9.95;;;;;;;12.21;100.00;101225.81;4944434;28;20431;-77
2022/10/28 06:12:19;;;;;;;14.80;9.63;;;;;;;12.12;100.00;101216.91;4954395;28;20046;-77
2022/10/28 06:14:45;;;;;;;20.77;11.10;;;;;;;12.09;100.00;101217.22;4944210;28;20066;-76
2022/10/28 06:17:10;;;;;;;18.00;10.70;;;;;;;11.99;100.00;101211.16;4954154;28;20050;-77
2022/10/28 06:19:35;;;;;;;19.03;9.93;;;;;;;11.94;100.00;101213.47;4942685;28;20078;-76
2022/10/28 06:22:01;;;;;;;14.57;9.07;;;;;;;11.96;100.00;101206.13;4956701;28;20555;-77
2022/10/28 06:24:26;;;;;;;14.40;9.37;;;;;;;11.93;100.00;101206.44;4954366;28;20389;-77
2022/10/28 06:26:51;;;;;;;20.57;10.20;;;;;;;11.92;100.00;101205.63;4950913;28;20031;-77
2022/10/28 06:29:17;;;;;;;16.00;8.93;;;;;;;11.95;100.00;101216.00;4929428;29;20130;-76
2022/10/28 06:31:43;;;;;;;21.13;10.70;;;;;;;12.00;100.00;101212.84;4943627;28;20039;-78
2022/10/28 06:34:09;;;;;;;18.52;9.43;;;;;;;12.04;100.00;101219.56;4949927;28;20814;-76
2022/10/28 06:36:35;;;;;;;20.83;13.73;;;;;;;12.01;100.00;101219.84;4946507;28;20039;-78
2022/10/28 06:39:00;;;;;;;16.27;9.57;;;;;;;12.04;100.00;101224.91;4937590;28;20038;-77
2022/10/28 06:41:26;;;;;;;22.17;12.40;;;;;;;12.12;100.00;101226.75;4954606;28;20889;-77
2022/10/28 06:43:51;;;;;;;22.10;11.57;;;;;;;12.15;100.00;101221.09;4942903;28;20077;-78
2022/10/28 06:46:16;;;;;;;14.97;9.57;;;;;;;12.15;100.00;101213.91;4944587;28;20504;-77
2022/10/28 06:48:42;;;;;;;15.33;10.17;;;;;;;12.29;100.00;101225.84;4946768;28;20373;-77
2022/10/28 06:51:07;;;;;;;19.90;9.80;;;;;;;12.36;100.00;101229.56;4944579;28;20401;-78
2022/10/28 06:53:33;;;;;;;15.20;7.90;;;;;;;12.36;100.00;101223.34;4942516;28;20045;-76
2022/10/28 06:55:58;;;;;;;15.90;9.83;;;;;;;12.46;100.00;101226.72;4949583;28;20049;-77
2022/10/28 06:58:24;;;;;;;12.10;8.90;;;;;;;12.53;100.00;101221.56;4949839;28;20070;-76
2022/10/28 07:00:50;;;;;;;14.85;9.45;;;;;;;12.63;100.00;101224.94;4957372;28;20580;-76
2022/10/28 07:03:17;;;;;;;13.35;8.20;;;;;;;12.65;100.00;101229.13;4949985;28;20031;-77
2022/10/28 07:05:43;;;;;;;11.95;8.48;;;;;;;12.66;100.00;101227.25;4945826;28;20047;-76
2022/10/28 07:08:09;;;;;;;14.60;9.30;;;;;;;12.73;100.00;101230.97;4947030;28;20095;-77
2022/10/28 07:10:34;;;;;;;26.60;9.23;;;;;;;12.70;100.00;101211.72;4950129;28;20304;-77
2022/10/28 07:12:59;;;;;;;15.60;7.67;;;;;;;12.72;100.00;101207.03;4929607;29;20355;-77
2022/10/28 07:15:25;;;;;;;16.67;8.63;;;;;;;12.83;100.00;101214.72;4946734;28;20032;-77
2022/10/28 07:18:00;;;;;;;17.37;8.17;;;;;;;12.94;100.00;101226.97;4945876;28;20039;-77
2022/10/28 07:20:27;;;;;;;18.98;8.60;;;;;;;13.01;100.00;101218.09;4947614;28;20057;-76
2022/10/28 07:22:57;;;;;;;20.17;11.50;;;;;;;13.18;100.00;101215.41;4946168;28;20039;-77
2022/10/28 07:25:22;;;;;;;21.48;9.48;;;;;;;13.59;100.00;101226.16;4939506;29;20036;-78
2022/10/28 07:27:47;;;;;;;15.23;8.07;;;;;;;14.00;100.00;101228.72;4938257;28;20038;-76
2022/10/28 07:30:13;;;;;;;12.20;7.27;;;;;;;14.05;100.00;101210.25;4937211;28;20079;-77
2022/10/28 07:32:38;;;;;;;15.70;7.55;;;;;;;13.98;100.00;101193.16;4951589;28;20062;-77
2022/10/28 07:35:04;;;;;;;13.03;6.63;;;;;;;14.14;100.00;101177.81;4955895;28;20087;-76
2022/10/28 07:37:29;;;;;;;11.80;6.57;;;;;;;13.85;100.00;101159.66;4948609;28;20031;-77
2022/10/28 07:39:55;;;;;;;18.40;7.23;;;;;;;13.68;100.00;101160.72;4944956;28;20492;-76
2022/10/28 07:42:20;;;;;;;15.57;7.00;;;;;;;13.94;100.00;101160.47;4951266;28;20041;-77
2022/10/28 07:44:45;;;;;;;13.00;6.67;;;;;;;13.86;100.00;101139.88;4949854;28;20598;-77
2022/10/28 07:47:11;;;;;;;17.67;6.90;;;;;;;13.83;100.00;101148.25;4937998;29;20436;-76
2022/10/28 07:49:36;;;;;;;13.27;6.73;;;;;;;13.83;100.00;101153.63;4935842;28;20043;-77
2022/10/28 07:52:01;;;;;;;13.67;6.53;;;;;;;13.72;100.00;101137.91;4953670;28;20027;-75
2022/10/28 07:54:27;;;;;;;16.70;6.27;;;;;;;13.81;100.00;101144.06;4949646;28;20523;-76
2022/10/28 07:56:53;;;;;;;12.43;6.20;;;;;;;13.92;100.00;101143.69;4946956;28;20062;-76
2022/10/28 07:59:19;;;;;;;16.87;6.97;;;;;;;13.93;100.00;101134.66;4956636;28;20125;-77
2022/10/28 08:01:45;;;;;;;15.25;6.35;;;;;;;14.39;100.00;101147.31;4948864;28;20039;-77
2022/10/28 08:04:10;;;;;;;10.35;5.30;;;;;;;15.15;100.00;101143.69;4948810;28;20047;-77
2022/10/28 08:06:36;;;;;;;14.43;5.50;;;;;;;16.06;100.00;101123.84;4961982;28;20043;-77
2022/10/28 08:09:02;;;;;;;11.47;4.93;;;;;;;16.33;100.00;101044.16;4948962;28;20030;-76
2022/10/28 08:11:27;;;;;;;14.60;5.38;;;;;;;16.43;100.00;100967.31;4948527;28;20042;-77
2022/10/28 08:13:54;;;;;;;13.07;5.17;;;;;;;16.32;100.00;100954.41;4964248;28;20313;-77
2022/10/28 08:16:20;;;;;;;13.27;5.72;;;;;;;16.39;100.00;100914.88;4949350;28;20691;-76
2022/10/28 08:18:45;;;;;;;17.40;6.77;;;;;;;16.89;100.00;100901.28;4946705;28;20040;-77
2022/10/28 08:21:11;;;;;;;12.77;5.30;;;;;;;17.25;100.00;100830.84;4948855;28;20542;-76
2022/10/28 08:23:40;;;;;;;10.10;4.68;;;;;;;17.53;100.00;100743.50;4929932;28;20035;-76
2022/10/28 08:26:06;;;;;;;16.42;5.75;;;;;;;17.76;100.00;100705.25;4940859;28;20042;-77
2022/10/28 08:28:31;;;;;;;10.98;4.88;;;;;;;18.43;100.00;100630.22;4951926;28;20472;-76
2022/10/28 08:31:02;;;;;;;12.03;5.07;;;;;;;18.76;100.00;100585.91;4956400;28;20093;-75
2022/10/28 08:33:29;;;;;;;14.30;4.78;;;;;;;19.04;100.00;100485.38;4931967;29;20386;-76
2022/10/28 08:35:55;;;;;;;9.52;4.68;;;;;;;19.30;100.00;100359.75;4947109;28;20401;-76
2022/10/28 08:38:20;;;;;;;9.07;4.67;;;;;;;19.29;100.00;100336.47;4952546;28;20107;-76
2022/10/28 08:41:05;;;;;;;7.33;4.43;;;;;;;18.89;100.00;100323.44;4945299;28;20860;-77
2022/10/28 08:44:16;;;;;;;8.38;4.85;;;;;;;18.61;100.00;100323.16;4927469;28;20055;-76
2022/10/28 08:46:47;;;;;;;13.45;5.13;;;;;;;17.62;100.00;100418.31;4938124;28;20047;-76
2022/10/28 08:49:19;;;;;;;11.38;4.78;;;;;;;17.84;100.00;100544.91;4946731;28;20110;-76
2022/10/28 08:51:52;;;;;;;16.25;5.45;;;;;;;18.09;100.00;100612.53;4946404;28;20641;-77
2022/10/28 08:54:23;;;;;;;8.90;4.85;;;;;;;17.99;100.00;100677.81;4948550;28;20179;-76
2022/10/28 08:56:50;;;;;;;8.68;5.28;;;;;;;18.01;100.00;100662.22;4948092;28;20046;-75
2022/10/28 08:59:29;;;;;;;16.77;6.18;;;;;;;18.65;100.00;100605.53;4946342;28;20408;-76
2022/10/28 09:02:02;;;;;;;14.45;4.88;;;;;;;19.06;100.00;100493.25;4950380;28;20042;-76
2022/10/28 09:04:37;;;;;;;9.10;4.93;;;;;;;17.98;100.00;100464.63;4950627;28;20126;-77
2022/10/28 09:07:03;;;;;;;11.27;5.63;;;;;;;18.33;100.00;100559.59;4943954;28;20046;-76
2022/10/28 09:09:29;;;;;;;17.27;5.45;;;;;;;18.64;100.00;100536.31;4945260;28;20504;-76
2022/10/28 09:11:55;;;;;;;;;;;;;;;19.19;100.00;100493.13;4945856;28;20035;-76
2022/10/28 09:14:29;;;;;;;14.87;5.93;;;;;;;19.13;100.00;100473.22;4945966;28;20136;-76
2022/10/28 09:17:12;;;;;;;15.45;5.10;;;;;;;19.63;100.00;100510.09;4949590;28;20290;-76
2022/10/28 09:19:48;;;;;;;12.27;5.38;;;;;;;19.50;100.00;100429.03;4945357;28;20453;-76
2022/10/28 09:22:20;;;;;;;10.65;4.97;;;;;;;19.86;100.00;100292.69;4953013;28;20039;-76
2022/10/28 09:24:57;;;;;;;15.07;5.00;;;;;;;20.54;100.00;100228.03;4947871;28;20053;-76
2022/10/28 09:27:43;;;;;;;10.48;4.88;;;;;;;21.04;100.00;100165.75;4946162;28;20035;-76
2022/10/28 09:30:25;;;;;;;12.18;5.28;;;;;;;21.10;100.00;100003.03;4943006;28;20382;-76
2022/10/28 09:33:17;;;;;;;12.20;4.72;;;;;;;20.75;100.00;99966.19;4944692;28;20098;-76
2022/10/28 09:35:46;;;;;;;10.35;5.25;;;;;;;20.73;100.00;100022.56;4944761;28;20046;-76
2022/10/28 09:38:26;;;;;;;11.63;4.95;;;;;;;20.68;100.00;99987.22;4950275;28;20197;-75
2022/10/28 09:40:57;;;;;;;11.90;4.47;;;;;;;19.76;100.00;99957.47;4942355;28;20036;-77
2022/10/28 09:43:52;;;;;;;11.00;4.30;;;;;;;20.52;100.00;100251.84;4957429;28;20085;-76
2022/10/28 09:46:17;;;;;;;11.88;4.40;;;;;;;19.82;100.00;100032.31;4935665;28;20047;-76
2022/10/28 09:48:47;;;;;;;16.60;4.50;;;;;;;20.54;100.00;100261.41;4944970;28;20046;-76
2022/10/28 09:51:32;;;;;;;9.82;4.80;;;;;;;20.54;100.00;100093.28;4947519;28;20052;-76
2022/10/28 09:53:59;;;;;;;16.70;5.15;;;;;;;20.31;100.00;100163.88;4945412;28;20488;-76
2022/10/28 09:56:26;;;;;;;10.85;5.18;;;;;;;19.82;100.00;100238.16;4947269;28;20684;-75
2022/10/28 09:58:54;;;;;;;14.10;5.03;;;;;;;19.56;100.00;100369.38;4944562;28;20035;-76
2022/10/28 10:01:19;;;;;;;9.60;4.18;;;;;;;19.76;100.00;100363.69;4945893;28;20031;-76
2022/10/28 10:03:49;;;;;;;11.77;4.28;;;;;;;20.63;100.00;100474.25;4944789;28;20040;-76
2022/10/28 10:06:35;;;;;;;13.07;5.05;;;;;;;21.75;100.00;100259.50;4951079;28;20086;-76
2022/10/28 10:09:01;;;;;;;;;;;;;;;20.67;100.00;100084.00;4948922;28;20061;-76
2022/10/28 10:11:30;;;;;;;11.73;4.80;;;;;;;20.91;100.00;100182.38;4948093;28;19922;-76
2022/10/28 10:13:57;;;;;;;10.82;3.95;;;;;;;21.39;98.44;100085.97;4964149;28;20086;-76
2022/10/28 10:16:38;;;;;;;11.82;3.70;;;;;;;21.45;95.75;99946.50;4943494;28;20015;-76
2022/10/28 10:19:06;;;;;;;9.63;3.80;;;;;;;21.28;97.43;100070.59;4947535;28;20070;-76
2022/10/28 10:21:51;;;;;;;6.65;3.42;;;;;;;22.16;95.66;100167.69;4944800;28;20023;-76
2022/10/28 10:24:29;;;;;;;12.38;3.97;;;;;;;21.24;91.92;99743.75;4933972;28;20038;-76
2022/10/28 10:27:00;;;;;;;8.95;3.55;;;;;;;21.39;94.74;100009.94;4947241;28;20035;-76
2022/10/28 10:29:25;;;;;;;7.65;3.78;;;;;;;21.43;93.39;99961.41;4945886;28;20052;-76
2022/10/28 10:32:18;;;;;;;14.52;4.38;;;;;;;22.01;91.22;99969.91;4964259;28;20030;-76
2022/10/28 10:35:24;;;;;;;15.35;4.95;;;;;;;21.02;89.18;99589.94;4945349;28;20150;-76
2022/10/28 10:37:50;;;;;;;14.57;4.70;;;;;;;21.03;92.92;99966.03;4961527;28;20075;-76
2022/10/28 10:40:26;;;;;;;8.38;3.28;;;;;;;21.35;93.55;100094.84;4953531;28;20093;-76
2022/10/28 10:42:52;;;;;;;;;;;;;;;21.72;92.50;100108.69;4963306;28;20147;-75
2022/10/28 10:45:26;;;;;;;11.05;4.10;;;;;;;21.74;88.79;99845.75;4952691;28;20009;-75
2022/10/28 10:48:13;;;;;;;7.70;4.55;;;;;;;21.28;91.83;99967.44;4950817;28;20115;-76
2022/10/28 10:50:40;;;;;;;17.35;5.10;;;;;;;21.37;89.69;99829.34;4935051;28;20039;-76
2022/10/28 10:53:15;;;;;;;10.02;3.83;;;;;;;21.20;93.17;100095.47;4953299;28;20399;-76
2022/10/28 10:55:40;;;;;;;9.65;3.72;;;;;;;21.89;92.34;100196.44;4931271;28;20039;-76
2022/10/28 10:58:17;;;;;;;17.05;5.47;;;;;;;22.12;90.89;100170.94;4951984;28;20114;-76
2022/10/28 11:00:54;;;;;;;11.65;4.00;;;;;;;21.98;88.57;99951.41;4945860;28;20037;-76
2022/10/28 11:03:27;;;;;;;11.18;4.45;;;;;;;21.73;86.60;99718.34;4953144;28;20138;-76
2022/10/28 11:05:56;;;;;;;14.45;4.55;;;;;;;21.34;87.46;99737.56;4951886;28;20078;-76
2022/10/28 11:08:39;;;;;;;10.43;4.55;;;;;;;22.22;87.49;99996.25;4955892;28;20361;-76
2022/10/28 11:11:06;;;;;;;9.00;3.38;;;;;;;21.87;89.00;100019.25;4949958;28;20073;-76
2022/10/28 11:13:33;;;;;;;10.75;4.00;;;;;;;23.10;85.43;100042.13;4954100;28;20038;-76
2022/10/28 11:16:03;;;;;;;8.15;3.28;;;;;;;22.72;84.28;99812.72;4947845;28;20036;-76
2022/10/28 11:18:40;;;;;;;13.35;4.07;;;;;;;23.42;81.09;99752.50;4936152;29;20074;-76
2022/10/28 11:21:21;;;;;;;11.02;4.50;;;;;;;23.80;80.07;99788.50;4945130;28;20031;-76
2022/10/28 11:24:18;;;;;;;12.23;3.55;;;;;;;23.09;77.69;99343.63;4950204;28;20047;-76